Time;durP1;ratioP1;P1;durP2;ratioP2;P2;SDS_P1;SDS_P2;PMS_P1;PMS_P2;Temp;Humidity;BMP_temperature;BMP_pressure;BME280_temperature;BME280_humidity;BME280_pressure;Samples;Min_cycle;Max_cycle;Signal;HPM_P1;HPM_P2
2022/01/19 00:01:36;;;;;;;20.40;19.50;;;-1.30;70.50;;;;;;5033200;28;20456;-77
2022/01/19 00:04:02;;;;;;;17.95;16.92;;;-1.30;70.30;;;;;;5032790;28;20416;-76
2022/01/19 00:06:28;;;;;;;19.65;18.85;;;-1.30;70.40;;;;;;5032803;28;20065;-77
2022/01/19 00:08:54;;;;;;;19.95;18.83;;;-1.30;70.40;;;;;;5033779;28;20029;-77
2022/01/19 00:11:20;;;;;;;18.60;17.90;;;-1.20;70.40;;;;;;5034301;28;20348;-78
2022/01/19 00:13:46;;;;;;;18.00;17.30;;;-1.20;70.00;;;;;;5033270;28;20028;-77
2022/01/19 00:16:12;;;;;;;19.80;18.77;;;-1.20;70.20;;;;;;5033428;28;20108;-78
2022/01/19 00:18:38;;;;;;;18.83;17.85;;;-1.20;70.10;;;;;;5032177;28;20049;-78
2022/01/19 00:21:04;;;;;;;19.50;18.58;;;-1.30;69.90;;;;;;5033059;28;20075;-77
2022/01/19 00:23:30;;;;;;;19.92;19.08;;;-1.30;70.00;;;;;;5032714;28;20455;-79
2022/01/19 00:25:56;;;;;;;20.77;19.65;;;-1.20;70.30;;;;;;5031887;28;20037;-78
2022/01/19 00:28:22;;;;;;;21.75;20.45;;;-1.30;70.20;;;;;;5033936;28;20021;-77
2022/01/19 00:30:49;;;;;;;18.27;17.58;;;-1.20;70.40;;;;;;5033266;28;20030;-77
2022/01/19 00:33:15;;;;;;;18.45;17.75;;;-1.30;70.40;;;;;;5035752;28;20438;-77
2022/01/19 00:35:41;;;;;;;19.60;18.52;;;-1.20;70.50;;;;;;5035562;28;20049;-79
2022/01/19 00:38:08;;;;;;;21.65;20.35;;;-1.20;70.40;;;;;;5036342;28;20028;-75
2022/01/19 00:40:36;;;;;;;19.70;18.70;;;-1.30;70.40;;;;;;5036810;28;20030;-79
2022/01/19 00:43:02;;;;;;;20.45;19.42;;;-1.30;70.40;;;;;;5036530;28;20125;-77
2022/01/19 00:45:28;;;;;;;20.55;19.45;;;-1.40;70.10;;;;;;5037097;28;20105;-78
2022/01/19 00:47:53;;;;;;;18.65;17.95;;;-1.40;70.60;;;;;;5035367;28;20025;-79
2022/01/19 00:50:22;;;;;;;18.63;17.92;;;-1.30;70.50;;;;;;5036696;28;20061;-79
2022/01/19 00:52:51;;;;;;;18.60;17.80;;;-1.20;70.60;;;;;;5036038;28;20117;-80
2022/01/19 00:55:18;;;;;;;24.83;23.48;;;-1.30;69.90;;;;;;5035901;28;20021;-78
2022/01/19 00:57:43;;;;;;;19.98;19.10;;;-1.30;69.90;;;;;;5037099;28;20076;-79
2022/01/19 01:00:12;;;;;;;21.52;20.60;;;-1.50;69.20;;;;;;5035270;28;20025;-80
2022/01/19 01:02:38;;;;;;;22.02;21.13;;;-1.60;69.30;;;;;;5035796;28;20025;-78
2022/01/19 01:05:05;;;;;;;21.92;20.65;;;-1.60;69.40;;;;;;5034713;28;20052;-77
2022/01/19 01:07:33;;;;;;;19.15;18.08;;;-1.60;69.60;;;;;;5036138;28;20030;-78
2022/01/19 01:09:59;;;;;;;19.10;18.30;;;-1.60;69.40;;;;;;5036687;28;20014;-81
2022/01/19 01:12:47;;;;;;;20.92;19.80;;;-1.50;69.70;;;;;;5036658;28;20082;-81
2022/01/19 01:20:30;;;;;;;;;;;-1.70;68.90;;;;;;5036921;28;20227;-82
2022/01/19 01:22:56;;;;;;;18.33;17.60;;;-1.70;68.60;;;;;;5035359;28;19901;-80
2022/01/19 01:25:22;;;;;;;18.27;17.58;;;-1.70;68.50;;;;;;5035242;28;20037;-79
2022/01/19 01:27:48;;;;;;;21.20;19.80;;;-1.70;68.70;;;;;;5036010;28;20352;-80
2022/01/19 01:30:14;;;;;;;19.40;18.05;;;-1.80;68.70;;;;;;5035152;28;20108;-84
2022/01/19 01:32:40;;;;;;;19.45;18.35;;;-1.80;68.70;;;;;;5034939;28;20364;-81
2022/01/19 01:35:07;;;;;;;19.58;18.67;;;-1.80;68.40;;;;;;5035995;28;20133;-80
2022/01/19 01:37:32;;;;;;;19.02;18.33;;;-1.80;68.40;;;;;;5035645;28;20025;-79
2022/01/19 01:40:01;;;;;;;19.65;18.83;;;-1.80;68.50;;;;;;5036114;28;20534;-79
2022/01/19 01:42:26;;;;;;;20.00;19.20;;;-1.70;68.70;;;;;;5035554;28;20064;-79
2022/01/19 01:44:55;;;;;;;19.52;18.80;;;-1.80;68.30;;;;;;5035035;28;20427;-85
2022/01/19 01:47:22;;;;;;;23.00;21.80;;;-1.80;68.60;;;;;;5034482;28;20021;-78
2022/01/19 01:55:09;;;;;;;18.48;17.40;;;-1.90;68.50;;;;;;5035671;28;20560;-78
2022/01/19 01:57:34;;;;;;;21.50;20.58;;;-1.80;68.50;;;;;;5035139;28;20052;-78
2022/01/19 02:00:00;;;;;;;21.05;20.15;;;-1.80;68.50;;;;;;5034752;28;20472;-76
2022/01/19 02:02:26;;;;;;;26.55;24.63;;;-1.70;68.70;;;;;;5035355;28;20033;-78
2022/01/19 02:04:51;;;;;;;22.90;21.45;;;-1.70;68.40;;;;;;5035790;28;20167;-78
2022/01/19 02:10:37;;;;;;;20.23;19.33;;;-1.70;68.70;;;;;;4956126;29;20019;-78
2022/01/19 02:21:45;;;;;;;23.13;21.73;;;-1.60;68.40;;;;;;5035296;28;20024;-80
2022/01/19 02:24:15;;;;;;;19.45;18.63;;;-1.50;68.40;;;;;;5034201;28;20032;-79
2022/01/19 02:30:07;;;;;;;18.92;18.10;;;-1.60;68.40;;;;;;5034827;28;20032;-78
2022/01/19 02:40:22;;;;;;;22.90;21.60;;;-1.60;68.50;;;;;;5034717;28;20040;-79
2022/01/19 02:50:38;;;;;;;18.80;18.00;;;-1.60;68.80;;;;;;5034448;28;20371;-77
2022/01/19 02:53:04;;;;;;;29.08;26.38;;;-1.60;68.80;;;;;;5034620;28;20018;-78
2022/01/19 02:55:31;;;;;;;20.73;19.92;;;-1.60;68.60;;;;;;5032618;28;20025;-78
2022/01/19 02:57:57;;;;;;;20.58;19.67;;;-1.70;68.80;;;;;;5033003;28;20452;-77
2022/01/19 03:08:54;;;;;;;19.98;18.77;;;-1.90;67.90;;;;;;5034270;28;20021;-79
2022/01/19 03:11:23;;;;;;;21.40;20.40;;;-2.00;68.30;;;;;;5034120;28;20108;-78
2022/01/19 03:13:50;;;;;;;19.48;18.65;;;-2.00;67.90;;;;;;5034303;28;20018;-79
2022/01/19 03:16:18;;;;;;;26.40;24.35;;;-2.10;67.80;;;;;;5034401;28;20033;-78
2022/01/19 03:18:44;;;;;;;21.50;20.48;;;-2.20;67.40;;;;;;5033368;28;20022;-77
2022/01/19 03:21:10;;;;;;;19.27;18.33;;;-2.30;67.70;;;;;;5034456;28;20025;-79
2022/01/19 03:23:36;;;;;;;20.70;19.67;;;-2.30;67.90;;;;;;5033968;28;20337;-78
2022/01/19 03:26:06;;;;;;;20.75;19.85;;;-2.30;68.10;;;;;;5032614;28;20128;-79
2022/01/19 03:28:32;;;;;;;21.30;20.40;;;-2.30;68.30;;;;;;5034179;28;20013;-79
2022/01/19 03:30:58;;;;;;;18.80;18.00;;;-2.20;68.10;;;;;;5033944;28;20025;-78
2022/01/19 03:33:24;;;;;;;19.88;18.70;;;-2.20;68.10;;;;;;5032436;28;20483;-78
2022/01/19 03:35:51;;;;;;;20.98;20.10;;;-2.30;67.90;;;;;;5032634;28;20057;-81
2022/01/19 03:38:17;;;;;;;19.38;18.35;;;-2.30;68.20;;;;;;5033958;28;20024;-79
2022/01/19 03:40:43;;;;;;;20.45;19.65;;;-2.30;68.10;;;;;;5032519;28;20112;-78
2022/01/19 03:43:09;;;;;;;23.50;22.13;;;-2.20;68.40;;;;;;5033870;28;20029;-78
2022/01/19 03:45:35;;;;;;;23.15;21.65;;;-2.10;68.50;;;;;;5033748;28;20196;-77
2022/01/19 03:50:43;;;;;;;21.98;20.73;;;-2.20;68.10;;;;;;5034357;28;20056;-79
2022/01/19 03:53:08;;;;;;;20.63;19.60;;;-2.30;68.00;;;;;;5033801;28;20053;-78
2022/01/19 03:55:34;;;;;;;26.63;24.05;;;-2.40;68.00;;;;;;5032710;28;20021;-75
2022/01/19 03:58:00;;;;;;;27.40;25.50;;;-2.50;67.90;;;;;;5033585;28;20091;-76
2022/01/19 04:00:26;;;;;;;25.08;23.60;;;-2.60;68.20;;;;;;5032314;28;20026;-74
2022/01/19 04:02:52;;;;;;;24.73;23.17;;;-2.60;68.40;;;;;;5033557;28;20025;-76
2022/01/19 04:05:23;;;;;;;29.38;27.42;;;-2.50;68.50;;;;;;5033502;28;20052;-76
2022/01/19 04:07:49;;;;;;;20.95;19.55;;;-2.60;68.10;;;;;;5035498;28;20029;-75
2022/01/19 04:10:16;;;;;;;22.58;21.38;;;-2.60;68.40;;;;;;5037229;28;20079;-79
2022/01/19 04:12:47;;;;;;;24.92;23.27;;;-2.60;68.40;;;;;;5037409;28;20017;-79
2022/01/19 04:15:15;;;;;;;22.50;21.08;;;-2.60;68.30;;;;;;5037232;28;20028;-74
2022/01/19 04:17:48;;;;;;;23.08;21.67;;;-2.70;68.20;;;;;;5036708;28;20182;-75
2022/01/19 04:20:13;;;;;;;23.20;21.85;;;-2.80;68.30;;;;;;5037746;28;20017;-79
2022/01/19 04:22:39;;;;;;;21.50;20.30;;;-2.80;68.20;;;;;;5037059;28;20024;-74
2022/01/19 04:25:05;;;;;;;21.85;20.85;;;-2.80;68.20;;;;;;5036932;28;20037;-75
2022/01/19 04:27:32;;;;;;;21.70;20.80;;;-2.80;68.60;;;;;;5035708;28;20029;-76
2022/01/19 04:30:10;;;;;;;20.60;19.65;;;-2.80;68.70;;;;;;5037019;28;20021;-81
2022/01/19 04:33:03;;;;;;;25.65;23.85;;;-2.70;68.60;;;;;;5037989;28;20032;-75
2022/01/19 04:35:32;;;;;;;21.17;20.30;;;-2.90;68.20;;;;;;5036526;28;20049;-77
2022/01/19 04:47:30;;;;;;;22.70;21.55;;;-3.20;68.70;;;;;;5037059;28;20082;-80
2022/01/19 05:05:19;;;;;;;22.30;21.38;;;-3.30;69.30;;;;;;5036147;28;20032;-77
2022/01/19 05:15:42;;;;;;;22.17;21.17;;;-3.30;69.40;;;;;;5035978;28;20124;-74
2022/01/19 05:18:08;;;;;;;21.05;20.25;;;-3.20;69.60;;;;;;5033865;28;20444;-73
2022/01/19 05:20:34;;;;;;;20.98;19.90;;;-3.20;69.50;;;;;;5034646;28;20025;-72
2022/01/19 05:23:00;;;;;;;22.98;21.73;;;-3.20;69.40;;;;;;5034565;28;20021;-70
2022/01/19 05:25:25;;;;;;;23.65;22.63;;;-3.20;69.40;;;;;;5035761;28;20029;-79
2022/01/19 05:27:51;;;;;;;28.23;25.95;;;-3.20;69.30;;;;;;5034840;28;20075;-81
2022/01/19 05:30:18;;;;;;;21.80;20.88;;;-3.20;69.30;;;;;;5035516;28;20028;-86
2022/01/19 05:32:47;;;;;;;21.08;20.17;;;-3.30;69.20;;;;;;5037293;28;20025;-76
2022/01/19 05:35:13;;;;;;;20.98;20.08;;;-3.30;69.30;;;;;;5035530;28;20050;-81
2022/01/19 05:41:14;;;;;;;23.98;22.70;;;-3.40;69.40;;;;;;5036056;28;20041;-82
2022/01/19 05:43:40;;;;;;;23.55;22.73;;;-3.40;69.30;;;;;;5035155;28;20033;-86
2022/01/19 05:46:06;;;;;;;25.35;23.70;;;-3.50;69.40;;;;;;5036480;28;20033;-84
2022/01/19 05:48:31;;;;;;;23.27;21.92;;;-3.60;69.60;;;;;;5034476;28;20099;-78
2022/01/19 05:54:20;;;;;;;21.83;20.83;;;-3.70;70.00;;;;;;5036249;28;20044;-76
2022/01/19 05:56:45;;;;;;;23.55;22.30;;;-3.70;70.00;;;;;;5035324;28;20499;-76
2022/01/19 05:59:11;;;;;;;25.17;24.10;;;-3.70;70.10;;;;;;5033747;28;20049;-77
2022/01/19 06:01:37;;;;;;;27.60;25.83;;;-3.70;70.30;;;;;;5034706;28;20028;-75
2022/01/19 06:04:03;;;;;;;28.55;27.00;;;-3.60;70.40;;;;;;5034712;28;20026;-78
2022/01/19 06:06:31;;;;;;;28.17;25.83;;;-3.60;70.40;;;;;;5033410;28;20029;-77
2022/01/19 06:09:02;;;;;;;22.75;21.65;;;-3.50;70.40;;;;;;5034868;28;20028;-69
2022/01/19 06:11:28;;;;;;;22.80;21.20;;;-3.50;70.10;;;;;;5035031;28;20359;-70
2022/01/19 06:13:54;;;;;;;23.63;22.52;;;-3.60;70.00;;;;;;5034526;28;20030;-69
2022/01/19 06:16:19;;;;;;;22.77;21.90;;;-3.60;70.10;;;;;;5034735;28;20026;-67
2022/01/19 06:18:45;;;;;;;24.75;23.27;;;-3.60;70.40;;;;;;5033392;28;20116;-70
2022/01/19 06:21:11;;;;;;;23.45;22.10;;;-3.60;70.40;;;;;;5034367;28;20456;-71
2022/01/19 06:23:37;;;;;;;23.77;22.42;;;-3.50;70.30;;;;;;5034593;28;20025;-69
2022/01/19 06:26:03;;;;;;;23.17;22.05;;;-3.60;70.20;;;;;;5033895;28;20332;-67
2022/01/19 06:28:29;;;;;;;23.98;22.75;;;-3.60;70.40;;;;;;5033251;28;20025;-70
2022/01/19 06:30:55;;;;;;;24.02;22.00;;;-3.70;70.30;;;;;;5032320;28;20473;-69
2022/01/19 06:33:20;;;;;;;24.27;22.90;;;-3.70;70.40;;;;;;5034378;28;20022;-70
2022/01/19 06:35:46;;;;;;;23.42;22.42;;;-3.70;71.10;;;;;;5032790;28;20051;-67
2022/01/19 06:38:12;;;;;;;22.58;21.70;;;-3.70;70.50;;;;;;5034310;28;20028;-70
2022/01/19 06:40:38;;;;;;;21.80;20.50;;;-3.60;70.70;;;;;;5034298;28;20104;-69
2022/01/19 06:43:04;;;;;;;21.98;20.77;;;-3.60;70.70;;;;;;5034492;28;20026;-69
2022/01/19 06:45:29;;;;;;;25.92;24.27;;;-3.60;70.40;;;;;;5034366;28;20496;-70
2022/01/19 06:47:55;;;;;;;22.15;21.05;;;-3.60;70.40;;;;;;5032785;28;20112;-70
2022/01/19 06:50:21;;;;;;;24.52;23.42;;;-3.70;70.40;;;;;;5033335;28;20057;-69
2022/01/19 06:52:48;;;;;;;24.73;22.92;;;-3.60;70.70;;;;;;5032865;28;20029;-69
2022/01/19 06:55:15;;;;;;;24.02;22.92;;;-3.60;70.80;;;;;;5035647;28;20104;-69
2022/01/19 06:57:40;;;;;;;21.30;20.33;;;-3.50;71.00;;;;;;5038307;28;20036;-70
2022/01/19 07:00:07;;;;;;;23.75;22.65;;;-3.40;71.00;;;;;;5037450;28;20026;-72
2022/01/19 07:02:33;;;;;;;25.10;23.45;;;-3.40;70.70;;;;;;5042869;28;20044;-70
2022/01/19 07:05:00;;;;;;;21.98;20.80;;;-3.30;70.80;;;;;;5038139;28;20021;-68
2022/01/19 07:07:26;;;;;;;25.27;23.17;;;-3.20;71.00;;;;;;5033779;28;20029;-68
2022/01/19 07:09:51;;;;;;;25.25;23.77;;;-3.10;70.70;;;;;;5033682;28;20072;-72
2022/01/19 07:12:17;;;;;;;27.85;25.98;;;-3.10;70.50;;;;;;5032513;28;20026;-70
2022/01/19 07:14:43;;;;;;;30.25;27.35;;;-3.10;70.70;;;;;;5033281;28;20049;-69
2022/01/19 07:17:09;;;;;;;26.25;24.75;;;-3.00;70.70;;;;;;5033992;28;20052;-69
2022/01/19 07:19:35;;;;;;;25.02;23.63;;;-3.00;70.70;;;;;;5033898;28;20026;-68
2022/01/19 07:22:01;;;;;;;28.58;26.80;;;-3.00;70.40;;;;;;5033444;28;20045;-69
2022/01/19 07:24:26;;;;;;;25.67;24.30;;;-3.00;70.30;;;;;;5032329;28;20464;-74
2022/01/19 07:26:53;;;;;;;26.67;25.00;;;-2.90;70.30;;;;;;5032825;28;20033;-68
2022/01/19 07:29:18;;;;;;;23.75;22.42;;;-2.90;70.50;;;;;;5028900;28;20479;-70
2022/01/19 07:31:44;;;;;;;21.98;20.65;;;-2.80;70.50;;;;;;5033880;28;20048;-65
2022/01/19 07:34:10;;;;;;;23.13;21.98;;;-2.80;70.10;;;;;;5032004;28;20112;-67
2022/01/19 07:36:36;;;;;;;23.00;21.80;;;-2.70;70.60;;;;;;5032329;28;20045;-67
2022/01/19 07:39:04;;;;;;;23.33;21.92;;;-2.60;70.50;;;;;;5032873;28;20028;-67
2022/01/19 07:41:29;;;;;;;23.23;21.98;;;-2.60;70.20;;;;;;5034382;28;20108;-67
2022/01/19 07:43:55;;;;;;;20.50;19.60;;;-2.50;70.20;;;;;;5037403;28;20486;-66
2022/01/19 07:46:21;;;;;;;19.40;18.60;;;-2.40;70.00;;;;;;5036792;28;20326;-67
2022/01/19 07:48:47;;;;;;;20.63;19.50;;;-2.40;69.90;;;;;;5037146;28;20104;-67
2022/01/19 07:51:12;;;;;;;22.20;21.10;;;-2.40;69.80;;;;;;5035878;28;20026;-67
2022/01/19 07:53:38;;;;;;;23.73;21.90;;;-2.30;69.80;;;;;;5037170;28;20076;-66
2022/01/19 07:56:05;;;;;;;18.95;18.15;;;-2.20;70.20;;;;;;5037277;28;20104;-67
2022/01/19 07:58:31;;;;;;;20.10;19.00;;;-2.00;70.40;;;;;;5037698;28;20352;-68
2022/01/19 08:00:56;;;;;;;19.60;18.25;;;-2.00;69.70;;;;;;5037275;28;20032;-66
2022/01/19 08:03:22;;;;;;;22.52;21.02;;;-2.00;69.30;;;;;;5036901;28;20383;-69
2022/01/19 08:05:48;;;;;;;20.77;19.42;;;-2.00;69.60;;;;;;5036835;28;20064;-70
2022/01/19 08:08:14;;;;;;;20.50;19.67;;;-1.90;69.40;;;;;;5037540;28;20059;-71
2022/01/19 08:10:42;;;;;;;22.17;20.70;;;-1.80;69.90;;;;;;5037390;28;20021;-69
2022/01/19 08:13:12;;;;;;;24.02;22.33;;;-1.80;69.40;;;;;;5035613;28;20022;-70
2022/01/19 08:15:38;;;;;;;27.17;25.17;;;-1.60;69.50;;;;;;5036534;28;20033;-70
2022/01/19 08:18:04;;;;;;;22.25;20.40;;;-1.60;69.20;;;;;;5035705;28;20029;-70
2022/01/19 08:20:29;;;;;;;26.77;24.30;;;-1.50;69.30;;;;;;5035645;28;20022;-71
2022/01/19 08:22:55;;;;;;;28.40;26.25;;;-1.40;68.90;;;;;;5036327;28;20021;-68
2022/01/19 08:25:21;;;;;;;25.23;23.40;;;-1.40;68.30;;;;;;5036513;28;20155;-71
2022/01/19 08:27:47;;;;;;;19.90;19.00;;;-1.40;68.20;;;;;;5037037;28;20333;-67
2022/01/19 08:30:14;;;;;;;25.75;23.65;;;-1.40;68.30;;;;;;5036937;28;20360;-69
2022/01/19 08:32:40;;;;;;;22.27;20.67;;;-1.40;68.30;;;;;;5036916;28;20478;-68
2022/01/19 08:35:07;;;;;;;26.63;25.00;;;-1.30;68.30;;;;;;5035177;28;20063;-68
2022/01/19 08:37:34;;;;;;;25.92;22.35;;;-1.30;68.20;;;;;;5035776;28;20413;-81
2022/01/19 08:40:00;;;;;;;22.08;20.40;;;-1.30;68.10;;;;;;5035503;28;20368;-60
2022/01/19 08:42:26;;;;;;;25.42;23.30;;;-1.20;68.00;;;;;;5035504;28;20152;-60
2022/01/19 08:44:53;;;;;;;26.30;24.70;;;-1.20;68.00;;;;;;5036349;28;20037;-60
2022/01/19 08:47:20;;;;;;;22.75;21.10;;;-1.10;68.20;;;;;;5035268;28;20079;-60
2022/01/19 08:49:46;;;;;;;24.15;22.20;;;-1.10;68.00;;;;;;5036666;28;20030;-60
2022/01/19 08:52:12;;;;;;;23.83;22.27;;;-0.90;68.40;;;;;;5035054;28;20025;-60
2022/01/19 08:54:37;;;;;;;21.48;20.25;;;-0.80;67.60;;;;;;5035776;28;20021;-60
2022/01/19 08:57:04;;;;;;;20.50;19.05;;;-0.80;67.30;;;;;;5035821;28;20014;-60
2022/01/19 08:59:31;;;;;;;17.83;16.60;;;-0.70;67.80;;;;;;5034792;28;20120;-60
2022/01/19 09:01:57;;;;;;;25.55;23.67;;;-0.60;67.40;;;;;;5034707;28;20507;-60
2022/01/19 09:04:24;;;;;;;19.65;18.15;;;-0.60;67.20;;;;;;5036240;28;20349;-61
2022/01/19 09:06:50;;;;;;;21.33;20.02;;;-0.60;67.00;;;;;;5035772;28;20021;-60
2022/01/19 09:09:16;;;;;;;19.23;18.00;;;-0.50;67.30;;;;;;5034657;28;20021;-60
2022/01/19 09:11:43;;;;;;;20.50;19.10;;;-0.60;66.60;;;;;;5035559;28;20096;-60
2022/01/19 09:14:10;;;;;;;18.92;17.75;;;-0.60;66.60;;;;;;5035953;28;20144;-60
2022/01/19 09:16:36;;;;;;;20.33;19.40;;;-0.60;66.70;;;;;;5035341;28;20033;-60
2022/01/19 09:19:03;;;;;;;20.17;18.63;;;-0.50;66.60;;;;;;5035795;28;20338;-61
2022/01/19 09:21:29;;;;;;;22.52;20.80;;;-0.40;66.70;;;;;;5034398;28;20025;-61
2022/01/19 09:23:55;;;;;;;21.83;20.50;;;-0.40;67.30;;;;;;5035036;28;20029;-61
2022/01/19 09:26:21;;;;;;;20.58;19.27;;;-0.30;66.90;;;;;;5035019;28;20029;-62
2022/01/19 09:28:46;;;;;;;21.50;20.10;;;-0.10;67.20;;;;;;5034010;28;20028;-61
2022/01/19 09:31:15;;;;;;;21.00;19.67;;;0.00;67.30;;;;;;5034519;28;20084;-60
2022/01/19 09:33:43;;;;;;;27.15;24.70;;;-0.10;66.10;;;;;;5033438;28;20024;-60
2022/01/19 09:36:29;;;;;;;19.50;18.23;;;-0.30;65.70;;;;;;5033717;28;20425;-61
2022/01/19 09:38:55;;;;;;;27.15;24.55;;;-0.30;66.00;;;;;;5034369;28;20441;-61
2022/01/19 09:41:22;;;;;;;27.17;24.45;;;-0.30;66.00;;;;;;5034176;28;20026;-62
2022/01/19 09:43:48;;;;;;;41.80;31.50;;;-0.20;66.40;;;;;;5034997;28;20030;-62
2022/01/19 09:46:14;;;;;;;31.02;28.02;;;0.00;66.70;;;;;;5034881;28;20079;-62
2022/01/19 09:48:40;;;;;;;19.95;18.23;;;0.00;66.40;;;;;;5033525;28;20478;-61
2022/01/19 09:51:06;;;;;;;20.17;18.92;;;-0.10;65.80;;;;;;5034228;28;20053;-62
2022/01/19 09:53:32;;;;;;;18.75;17.45;;;-0.20;65.30;;;;;;5033879;28;20025;-61
2022/01/19 09:55:58;;;;;;;18.35;17.15;;;-0.10;65.70;;;;;;5035200;28;20448;-61
2022/01/19 09:58:24;;;;;;;26.60;24.15;;;-0.10;65.60;;;;;;5033797;28;20094;-61
2022/01/19 10:00:50;;;;;;;21.33;20.00;;;-0.10;65.40;;;;;;5033917;28;20025;-61
2022/01/19 10:03:25;;;;;;;22.95;21.02;;;-0.10;65.90;;;;;;5033221;28;20148;-61
2022/01/19 10:06:05;;;;;;;21.30;19.48;;;0.10;66.20;;;;;;5030612;28;20373;-60
2022/01/19 10:08:37;;;;;;;26.75;24.17;;;0.20;66.10;;;;;;5025916;28;20090;-60
2022/01/19 10:17:02;;;;;;;23.90;21.50;;;0.20;65.40;;;;;;5034995;28;20040;-62
2022/01/19 10:19:34;;;;;;;23.58;21.90;;;0.20;65.30;;;;;;5035001;28;20025;-60
2022/01/19 10:22:10;;;;;;;19.30;18.00;;;0.20;65.30;;;;;;5034761;28;20036;-62
2022/01/19 10:24:50;;;;;;;23.02;21.00;;;0.10;65.00;;;;;;5034519;28;20025;-61
2022/01/19 10:27:22;;;;;;;21.52;20.08;;;0.00;65.00;;;;;;5034764;28;20040;-61
2022/01/19 10:29:50;;;;;;;18.88;17.77;;;-0.10;64.50;;;;;;5033010;28;20029;-61
2022/01/19 10:32:18;;;;;;;21.70;20.02;;;-0.10;64.80;;;;;;5034276;28;20021;-61
2022/01/19 10:34:44;;;;;;;34.60;25.63;;;0.00;65.20;;;;;;5034030;28;20036;-61
2022/01/19 10:37:09;;;;;;;24.42;22.10;;;0.00;65.00;;;;;;5033504;28;20025;-60
2022/01/19 10:39:43;;;;;;;22.10;20.63;;;0.10;65.20;;;;;;5032964;28;20049;-61
2022/01/19 10:42:17;;;;;;;21.20;19.65;;;0.10;65.10;;;;;;5031455;28;20108;-59
2022/01/19 10:44:51;;;;;;;24.45;22.92;;;0.10;64.80;;;;;;5032883;28;20033;-57
2022/01/19 10:47:18;;;;;;;25.13;22.90;;;0.00;64.80;;;;;;5032970;28;20416;-59
2022/01/19 10:49:53;;;;;;;20.95;19.75;;;0.00;65.00;;;;;;5032796;28;20029;-57
2022/01/19 10:52:31;;;;;;;21.38;19.98;;;0.00;64.80;;;;;;5034181;28;20030;-59
2022/01/19 10:54:59;;;;;;;19.67;18.58;;;0.00;64.30;;;;;;5033317;28;20111;-57
2022/01/19 10:57:27;;;;;;;22.98;21.38;;;0.10;64.70;;;;;;5033692;28;20022;-62
2022/01/19 11:00:09;;;;;;;21.77;20.10;;;0.20;64.80;;;;;;5030979;28;20021;-62
2022/01/19 11:02:39;;;;;;;20.90;19.70;;;0.20;64.60;;;;;;5031519;28;20064;-61
2022/01/19 11:05:05;;;;;;;18.65;17.38;;;0.20;64.20;;;;;;5032796;28;20079;-61
2022/01/19 11:07:31;;;;;;;19.65;18.60;;;0.30;64.20;;;;;;5032909;28;20113;-61
2022/01/19 11:09:59;;;;;;;19.30;17.90;;;0.20;63.60;;;;;;5032066;28;20029;-61
2022/01/19 11:12:29;;;;;;;19.73;18.52;;;0.20;63.50;;;;;;5031633;28;20108;-62
2022/01/19 11:14:56;;;;;;;19.20;18.02;;;0.20;63.40;;;;;;5032831;28;20022;-61
2022/01/19 11:17:22;;;;;;;18.83;17.70;;;0.30;63.50;;;;;;5034044;28;20448;-62
2022/01/19 11:19:49;;;;;;;16.35;15.57;;;0.20;63.10;;;;;;5032653;28;20025;-61
2022/01/19 11:22:41;;;;;;;19.85;18.52;;;0.30;63.40;;;;;;5033769;28;20028;-61
2022/01/19 11:25:17;;;;;;;17.83;16.55;;;0.20;62.90;;;;;;5032758;28;20040;-61
2022/01/19 11:27:47;;;;;;;20.83;19.20;;;0.30;63.40;;;;;;5031395;28;20368;-61
2022/01/19 11:30:24;;;;;;;18.60;17.33;;;0.40;63.30;;;;;;5033026;28;20357;-58
2022/01/19 11:33:18;;;;;;;19.92;18.98;;;0.40;63.00;;;;;;5030823;28;20021;-62
2022/01/19 11:35:47;;;;;;;20.25;18.83;;;0.30;62.40;;;;;;5024384;28;20048;-62
2022/01/19 11:38:32;;;;;;;20.88;19.25;;;0.40;62.30;;;;;;5032264;28;20045;-62
2022/01/19 11:41:10;;;;;;;17.30;16.45;;;0.30;62.40;;;;;;5031841;28;20048;-62
2022/01/19 11:43:38;;;;;;;20.02;18.88;;;0.30;62.20;;;;;;5032220;28;20476;-62
2022/01/19 11:46:05;;;;;;;37.70;28.48;;;0.20;61.80;;;;;;5032777;28;20043;-62
2022/01/19 11:48:35;;;;;;;19.65;18.30;;;0.20;62.00;;;;;;5033034;28;20022;-61
2022/01/19 11:51:30;;;;;;;20.40;19.00;;;0.30;62.10;;;;;;5033339;28;20052;-62
2022/01/19 11:54:11;;;;;;;45.53;31.52;;;0.30;62.20;;;;;;5035401;28;20022;-62
2022/01/19 11:57:04;;;;;;;16.40;15.60;;;0.30;61.90;;;;;;5033626;28;20057;-63
2022/01/19 11:59:52;;;;;;;30.88;24.10;;;0.40;61.80;;;;;;5002540;28;20095;-61
2022/01/19 12:02:21;;;;;;;26.45;24.10;;;0.40;61.40;;;;;;5032041;28;20471;-63
2022/01/19 12:04:59;;;;;;;24.02;22.20;;;0.40;61.90;;;;;;5032044;28;20470;-62
2022/01/19 12:07:55;;;;;;;24.95;22.85;;;0.50;62.10;;;;;;5033265;28;20440;-62
2022/01/19 12:10:23;;;;;;;24.48;22.42;;;0.60;62.10;;;;;;5033582;28;20017;-61
2022/01/19 12:16:01;;;;;;;22.73;20.75;;;0.70;61.80;;;;;;5032443;28;20037;-61
2022/01/19 12:18:53;;;;;;;22.35;20.80;;;0.80;61.90;;;;;;5030636;28;20013;-63
2022/01/19 12:21:21;;;;;;;18.60;17.50;;;0.80;62.20;;;;;;5022173;28;20084;-62
2022/01/19 12:23:49;;;;;;;20.88;19.10;;;0.90;61.70;;;;;;5032473;28;20024;-62
2022/01/19 12:26:16;;;;;;;19.55;18.05;;;0.90;61.30;;;;;;5032269;28;20022;-62
2022/01/19 12:28:54;;;;;;;19.40;18.30;;;0.80;60.60;;;;;;5034294;28;20041;-62
2022/01/19 12:31:30;;;;;;;20.67;19.40;;;0.70;61.30;;;;;;5035781;28;20021;-62
2022/01/19 12:34:18;;;;;;;24.20;22.70;;;0.80;61.60;;;;;;5036700;28;20387;-61
2022/01/19 12:36:43;;;;;;;24.73;22.70;;;0.90;61.60;;;;;;5036622;28;20128;-61
2022/01/19 12:39:24;;;;;;;31.23;25.05;;;0.90;61.40;;;;;;5034679;28;20109;-61
2022/01/19 12:41:59;;;;;;;22.52;20.10;;;0.90;61.10;;;;;;5035208;28;20112;-62
2022/01/19 12:44:43;;;;;;;27.23;24.60;;;0.90;61.10;;;;;;5036318;28;20526;-61
2022/01/19 12:47:27;;;;;;;36.33;28.73;;;0.80;60.60;;;;;;5036424;28;20035;-62
2022/01/19 12:50:18;;;;;;;22.33;20.63;;;0.80;60.80;;;;;;5036505;28;20021;-62
2022/01/19 12:52:49;;;;;;;25.30;22.95;;;0.80;61.10;;;;;;5036099;28;20017;-61
2022/01/19 12:55:36;;;;;;;23.02;21.30;;;0.80;60.50;;;;;;5034818;28;20033;-61
2022/01/19 12:58:13;;;;;;;22.45;21.08;;;0.80;60.70;;;;;;5036183;28;20021;-61
2022/01/19 13:00:40;;;;;;;25.50;23.52;;;0.80;60.70;;;;;;5036280;28;20021;-63
2022/01/19 13:03:36;;;;;;;26.60;24.25;;;0.90;60.60;;;;;;5035319;28;20021;-62
2022/01/19 13:06:07;;;;;;;22.60;20.80;;;0.80;60.50;;;;;;5023083;28;20034;-62
2022/01/19 13:08:37;;;;;;;23.48;22.02;;;0.90;60.60;;;;;;5035103;28;20812;-62
2022/01/19 13:11:29;;;;;;;23.75;21.95;;;0.80;60.30;;;;;;5036174;28;20357;-62
2022/01/19 13:14:01;;;;;;;19.75;18.67;;;0.80;60.30;;;;;;5036312;28;20026;-63
2022/01/19 13:16:37;;;;;;;21.95;20.70;;;0.70;60.00;;;;;;5036226;28;20099;-62
2022/01/19 13:19:09;;;;;;;28.08;25.60;;;0.70;60.40;;;;;;5034089;28;20029;-62
2022/01/19 13:21:36;;;;;;;22.45;20.40;;;0.80;60.50;;;;;;5035050;28;20027;-62
2022/01/19 13:24:12;;;;;;;19.60;18.33;;;0.80;60.50;;;;;;5034253;28;20037;-62
2022/01/19 13:26:46;;;;;;;22.10;20.17;;;0.80;60.50;;;;;;5033909;28;20029;-61
2022/01/19 13:29:25;;;;;;;26.63;24.50;;;0.80;60.50;;;;;;5035036;28;20072;-61
2022/01/19 13:32:04;;;;;;;22.75;21.30;;;0.90;60.80;;;;;;5034376;28;20021;-62
2022/01/19 13:34:49;;;;;;;21.92;20.70;;;0.90;60.70;;;;;;5035760;28;20020;-63
2022/01/19 13:37:15;;;;;;;21.20;20.02;;;0.90;60.60;;;;;;5035928;28;20052;-62
2022/01/19 13:39:41;;;;;;;17.67;16.65;;;0.90;60.00;;;;;;5035427;28;20024;-62
2022/01/19 13:42:07;;;;;;;16.70;15.65;;;0.90;59.70;;;;;;5034114;28;20025;-62
2022/01/19 13:44:44;;;;;;;20.75;19.20;;;0.80;59.90;;;;;;5034399;28;20022;-61
2022/01/19 13:47:16;;;;;;;21.20;19.98;;;0.80;60.20;;;;;;5035244;28;20026;-62
2022/01/19 13:49:51;;;;;;;21.48;20.15;;;0.80;59.80;;;;;;5035164;28;20109;-61
2022/01/19 13:52:23;;;;;;;20.40;19.13;;;0.80;59.80;;;;;;5033705;28;20021;-62
2022/01/19 13:54:49;;;;;;;23.70;21.80;;;0.80;59.90;;;;;;5035919;28;20070;-62
2022/01/19 13:57:28;;;;;;;20.75;19.15;;;0.90;60.10;;;;;;5035371;28;20033;-62
2022/01/19 14:00:07;;;;;;;23.25;21.67;;;0.80;59.50;;;;;;5033189;28;20460;-62
2022/01/19 14:02:33;;;;;;;24.55;22.08;;;0.80;59.60;;;;;;5033888;28;20017;-62
2022/01/19 14:05:03;;;;;;;21.67;20.40;;;0.80;59.60;;;;;;5034790;28;20025;-61
2022/01/19 14:07:28;;;;;;;22.85;20.90;;;0.80;59.90;;;;;;5034924;28;20072;-61
2022/01/19 14:10:05;;;;;;;21.48;20.20;;;0.80;60.00;;;;;;5034126;28;20017;-60
2022/01/19 14:12:31;;;;;;;23.23;21.55;;;0.80;60.00;;;;;;5034683;28;20028;-60
2022/01/19 14:14:58;;;;;;;26.10;23.80;;;0.80;59.80;;;;;;5035107;28;20048;-61
2022/01/19 14:17:37;;;;;;;21.08;19.67;;;0.80;59.80;;;;;;5034692;28;20072;-61
2022/01/19 14:20:04;;;;;;;24.05;22.17;;;0.80;59.80;;;;;;5033913;28;20022;-62
2022/01/19 14:22:32;;;;;;;23.90;22.08;;;0.90;60.00;;;;;;5034722;28;20017;-61